Terminal Aerodrome Forecast
Issued by NWS

Home | Current Version | Previous Version | Text Only | Print | Product List | Glossary On
Versions: 1 2 3 4 5 6 7 8 9 10 11 12 13 14 15 16 17 18 19 20 21 22 23 24 25 26 27 28 29 30 31 32 33 34 35 36 37 38 39 40 41
000
FTUS44 KLIX 240532
TAFASD
TAF
KASD 240532Z 2406/2506 15005KT P6SM SCT019 BKN070
      TEMPO 2406/2409 5SM BR BKN019
     FM240900 15005KT 5SM BR BKN015
     FM241400 16007KT P6SM BKN015
     FM241600 16010KT P6SM SCT020 BKN040 PROB30 2418/2424 4SM TSRA
      BKN020CB
     FM250000 18006KT P6SM BKN020 PROB30 2500/2506 4SM TSRA
      OVC007CB=

USA.gov is the U.S. government's official web portal to all federal, state and local government web resources and services.